New Delhi, India
Current Conditions -  °F | °C
As of 11:30 AM on Thursday 23 Oct 2014 (Local Time) from VIDP Reporting Station
Haze Haze  
Wind Chill: 88°   Ceiling: Unl
Heat Index: 89°   Visibility: 2mi
Dew Point: 64°   Wind: 7mph
Humidity: 46%   Direction: 80°E
Pressure: 29.97"   Gusts: NA
Location:  28.61°N, 77.21°E
Report Text: VIDP 230630Z 08006KT 3200 HZ NSC 31/18 Q1015 BECMG 3000
Loading
Personal Weather Stations






























Interactive Weather Map
Tropical Storm Tracking
New forecast layout! Learn more

10-Day Weather Forecast

Advertisements
Track Severe Weather on mobile